Time;durP1;ratioP1;P1;durP2;ratioP2;P2;SDS_P1;SDS_P2;PMS_P1;PMS_P2;Temp;Humidity;BMP_temperature;BMP_pressure;BME280_temperature;BME280_humidity;BME280_pressure;Samples;Min_cycle;Max_cycle;Signal;HPM_P1;HPM_P2
2022/05/15 00:02:45;;;;;;;15.57;5.72;;;15.80;99.90;;;;;;5019691;28;20030;-69
2022/05/15 00:05:11;;;;;;;17.88;6.18;;;15.80;99.90;;;;;;5018875;28;20088;-68
2022/05/15 00:07:37;;;;;;;23.05;5.88;;;15.80;99.90;;;;;;5019510;28;20029;-69
2022/05/15 00:10:04;;;;;;;14.13;5.72;;;15.70;99.90;;;;;;5019901;28;20287;-69
2022/05/15 00:12:31;;;;;;;13.25;5.78;;;15.70;99.90;;;;;;5019600;28;20029;-69
2022/05/15 00:14:57;;;;;;;18.65;6.07;;;15.60;99.90;;;;;;5019319;28;20105;-69
2022/05/15 00:17:22;;;;;;;13.77;5.78;;;15.60;99.90;;;;;;5019361;28;20121;-69
2022/05/15 00:19:48;;;;;;;16.90;6.40;;;15.50;99.90;;;;;;5019280;28;20386;-69
2022/05/15 00:22:14;;;;;;;15.75;6.22;;;15.50;99.90;;;;;;5018866;28;20305;-69
2022/05/15 00:24:40;;;;;;;19.15;6.40;;;15.50;99.90;;;;;;5019208;28;20416;-69
2022/05/15 00:27:07;;;;;;;19.15;6.40;;;15.50;99.90;;;;;;5019180;28;20108;-69
2022/05/15 00:29:34;;;;;;;15.85;6.20;;;15.40;99.90;;;;;;5019054;28;20417;-69
2022/05/15 00:32:00;;;;;;;18.25;6.22;;;15.40;99.90;;;;;;5019125;28;20030;-68
2022/05/15 00:34:26;;;;;;;19.40;6.32;;;15.40;99.90;;;;;;5019016;28;20030;-69
2022/05/15 00:36:52;;;;;;;14.90;6.07;;;15.30;99.90;;;;;;5018251;28;20040;-68
2022/05/15 00:39:18;;;;;;;19.60;7.07;;;15.30;99.90;;;;;;5018246;28;20030;-69
2022/05/15 00:41:44;;;;;;;17.13;7.00;;;15.20;99.90;;;;;;5018242;28;20396;-69
2022/05/15 00:44:10;;;;;;;23.02;6.80;;;15.20;99.90;;;;;;5018648;28;20342;-69
2022/05/15 00:46:40;;;;;;;22.30;6.53;;;15.20;99.90;;;;;;5019067;28;20275;-69
2022/05/15 00:49:10;;;;;;;17.35;6.32;;;15.20;99.90;;;;;;5018291;28;20458;-69
2022/05/15 00:51:56;;;;;;;17.40;6.75;;;15.20;99.90;;;;;;5017876;28;20034;-69
2022/05/15 00:54:32;;;;;;;17.65;6.63;;;15.10;99.90;;;;;;5018692;28;20034;-69
2022/05/15 00:57:07;;;;;;;18.23;7.00;;;15.10;99.90;;;;;;5018612;28;20034;-69
2022/05/15 00:59:39;;;;;;;17.35;6.68;;;15.10;99.90;;;;;;5018600;28;20026;-69
2022/05/15 01:02:05;;;;;;;17.20;6.82;;;15.00;99.90;;;;;;5017854;28;20326;-69
2022/05/15 01:04:31;;;;;;;15.40;6.30;;;15.00;99.90;;;;;;5018516;28;20068;-68
2022/05/15 01:07:00;;;;;;;20.20;7.35;;;15.00;99.90;;;;;;5001323;28;20030;-69
2022/05/15 01:09:25;;;;;;;16.83;6.85;;;14.90;99.90;;;;;;5018368;28;20124;-69
2022/05/15 01:11:52;;;;;;;18.60;6.70;;;14.80;99.90;;;;;;5018574;28;20116;-69
2022/05/15 01:14:19;;;;;;;18.10;6.80;;;14.80;99.90;;;;;;5017463;28;20038;-69
2022/05/15 01:16:45;;;;;;;17.73;6.50;;;14.80;99.90;;;;;;5018326;28;20293;-69
2022/05/15 01:19:12;;;;;;;21.55;7.18;;;14.80;99.90;;;;;;5017458;28;20054;-69
2022/05/15 01:21:52;;;;;;;15.32;6.50;;;14.70;99.90;;;;;;5018162;28;20069;-69
2022/05/15 01:24:19;;;;;;;19.65;7.28;;;14.70;99.90;;;;;;5017437;28;20022;-69
2022/05/15 01:26:45;;;;;;;17.60;6.72;;;14.70;99.90;;;;;;5017200;28;20121;-69
2022/05/15 01:29:15;;;;;;;20.90;7.25;;;14.60;99.90;;;;;;5001391;28;20044;-69
2022/05/15 01:31:42;;;;;;;16.60;6.60;;;14.70;99.90;;;;;;5017119;28;20061;-70
2022/05/15 01:34:10;;;;;;;15.32;6.63;;;14.60;99.90;;;;;;5017120;28;20030;-69
2022/05/15 01:36:37;;;;;;;19.65;6.82;;;14.50;99.90;;;;;;5017101;28;20167;-69
2022/05/15 01:39:05;;;;;;;15.30;6.40;;;14.50;99.90;;;;;;5017149;28;20036;-69
2022/05/15 01:41:32;;;;;;;14.77;6.63;;;14.50;99.90;;;;;;5000995;28;20322;-69
2022/05/15 01:43:58;;;;;;;18.58;7.38;;;14.50;99.90;;;;;;5016883;28;20133;-69
2022/05/15 01:46:28;;;;;;;22.35;7.43;;;14.40;99.90;;;;;;5016909;28;20405;-69
2022/05/15 01:48:57;;;;;;;17.90;6.88;;;14.40;99.90;;;;;;5017017;28;20040;-69
2022/05/15 01:51:24;;;;;;;20.17;7.63;;;14.30;99.90;;;;;;5016881;28;20053;-69
2022/05/15 01:53:50;;;;;;;17.42;6.68;;;14.40;99.90;;;;;;5017682;28;20065;-69
2022/05/15 01:56:17;;;;;;;21.92;7.75;;;14.30;99.90;;;;;;5017628;28;20173;-69
2022/05/15 01:58:42;;;;;;;19.58;7.40;;;14.30;99.90;;;;;;5018648;28;20335;-69
2022/05/15 02:01:08;;;;;;;20.00;7.15;;;14.30;99.90;;;;;;5016757;28;20112;-69
2022/05/15 02:03:35;;;;;;;19.67;6.95;;;14.20;99.90;;;;;;5016723;28;20412;-69
2022/05/15 02:06:02;;;;;;;20.40;7.60;;;14.30;99.90;;;;;;5016593;28;20149;-69
2022/05/15 02:08:33;;;;;;;18.55;7.22;;;14.20;99.90;;;;;;5016835;28;20034;-69
2022/05/15 02:11:00;;;;;;;20.30;7.15;;;14.10;99.90;;;;;;5016607;28;20038;-69
2022/05/15 02:13:26;;;;;;;18.90;7.20;;;14.10;99.90;;;;;;5016519;28;20416;-69
2022/05/15 02:15:52;;;;;;;18.90;7.53;;;14.10;99.90;;;;;;5016425;28;20030;-69
2022/05/15 02:18:18;;;;;;;17.25;7.18;;;14.00;99.90;;;;;;5017357;28;20068;-68
2022/05/15 02:20:44;;;;;;;20.45;7.35;;;14.00;99.90;;;;;;5016487;28;20053;-68
2022/05/15 02:23:11;;;;;;;18.27;7.40;;;14.00;99.90;;;;;;5016494;28;20049;-68
2022/05/15 02:25:38;;;;;;;17.73;7.00;;;13.90;99.90;;;;;;5016561;28;20445;-69
2022/05/15 02:28:04;;;;;;;19.90;7.15;;;13.90;99.90;;;;;;5016297;28;20030;-68
2022/05/15 02:30:30;;;;;;;22.40;7.13;;;13.90;99.90;;;;;;4999971;28;20394;-69
2022/05/15 02:32:57;;;;;;;13.45;6.90;;;13.80;99.90;;;;;;5016231;28;20113;-68
2022/05/15 02:35:23;;;;;;;22.25;7.50;;;13.80;99.90;;;;;;5016247;28;20084;-69
2022/05/15 02:37:49;;;;;;;22.60;7.55;;;13.80;99.90;;;;;;5017297;28;20050;-69
2022/05/15 02:40:23;;;;;;;19.05;7.45;;;13.80;99.90;;;;;;5016206;28;20041;-68
2022/05/15 02:42:51;;;;;;;22.30;8.13;;;13.80;99.90;;;;;;5016107;28;20045;-68
2022/05/15 02:45:17;;;;;;;16.23;6.93;;;13.70;99.90;;;;;;5016289;28;20294;-68
2022/05/15 02:47:42;;;;;;;17.38;7.18;;;13.70;99.90;;;;;;5000224;28;20034;-68
2022/05/15 02:52:55;;;;;;;20.58;7.68;;;13.60;99.90;;;;;;5016898;28;20405;-68
2022/05/15 02:55:23;;;;;;;16.70;6.78;;;13.60;99.90;;;;;;5016115;28;20057;-69
2022/05/15 02:57:49;;;;;;;18.00;7.47;;;13.60;99.90;;;;;;5016893;28;20045;-69
2022/05/15 03:00:16;;;;;;;17.80;7.10;;;13.60;99.90;;;;;;5016843;28;20050;-68
2022/05/15 03:02:42;;;;;;;18.05;7.25;;;13.70;99.90;;;;;;5016012;28;20034;-68
2022/05/15 03:05:10;;;;;;;17.00;7.30;;;13.60;99.90;;;;;;5016105;28;20433;-68
2022/05/15 03:07:37;;;;;;;18.02;6.72;;;13.60;99.90;;;;;;5016731;28;20030;-67
2022/05/15 03:10:04;;;;;;;19.40;7.00;;;13.60;99.90;;;;;;5015935;28;20097;-68
2022/05/15 03:12:30;;;;;;;20.17;7.50;;;13.60;99.90;;;;;;5016989;28;20157;-68
2022/05/15 03:14:56;;;;;;;17.98;7.35;;;13.70;99.90;;;;;;5018636;28;20029;-68
2022/05/15 03:17:22;;;;;;;22.67;6.97;;;13.70;99.90;;;;;;5019702;28;20038;-68
2022/05/15 03:19:48;;;;;;;19.20;6.75;;;13.60;99.90;;;;;;5020892;28;20058;-68
2022/05/15 03:22:14;;;;;;;18.88;6.82;;;13.60;99.90;;;;;;5020509;28;20061;-68
2022/05/15 03:24:40;;;;;;;14.13;7.07;;;13.50;99.90;;;;;;5020913;28;20057;-68
2022/05/15 03:27:06;;;;;;;16.10;7.07;;;13.50;99.90;;;;;;5020496;28;20405;-68
2022/05/15 03:29:31;;;;;;;19.67;7.53;;;13.50;99.90;;;;;;5020249;28;20026;-68
2022/05/15 03:31:58;;;;;;;19.52;7.13;;;13.50;99.90;;;;;;5020747;28;20053;-68
2022/05/15 03:34:24;;;;;;;19.90;7.30;;;13.50;99.90;;;;;;5020117;28;20034;-68
2022/05/15 03:36:51;;;;;;;20.02;6.68;;;13.40;99.90;;;;;;5019448;28;20054;-68
2022/05/15 03:39:21;;;;;;;17.48;6.75;;;13.40;99.90;;;;;;5020426;28;20380;-68
2022/05/15 03:41:48;;;;;;;19.67;7.40;;;13.40;99.90;;;;;;5020603;28;20032;-68
2022/05/15 03:44:15;;;;;;;17.60;7.15;;;13.20;99.90;;;;;;5019044;28;20053;-68
2022/05/15 03:46:43;;;;;;;22.08;7.65;;;13.20;99.90;;;;;;5020200;28;20417;-68
2022/05/15 03:49:13;;;;;;;18.58;6.90;;;13.20;99.90;;;;;;5019135;28;20117;-67
2022/05/15 03:51:40;;;;;;;17.58;7.70;;;13.10;99.90;;;;;;5019881;28;20305;-68
2022/05/15 03:54:07;;;;;;;17.90;7.13;;;13.10;99.90;;;;;;5020016;28;20199;-68
2022/05/15 03:56:52;;;;;;;21.27;6.93;;;13.20;99.90;;;;;;5018968;28;20030;-68
2022/05/15 03:59:27;;;;;;;19.17;7.28;;;13.20;99.90;;;;;;5019001;28;20022;-68
2022/05/15 04:01:53;;;;;;;;;;;13.20;99.90;;;;;;5020319;28;20025;-68
2022/05/15 04:04:20;;;;;;;18.05;6.72;;;13.20;99.90;;;;;;5018820;28;19944;-68
2022/05/15 04:06:46;;;;;;;18.27;7.25;;;13.20;99.90;;;;;;5018872;28;20345;-69
2022/05/15 04:09:12;;;;;;;21.92;7.07;;;13.20;99.90;;;;;;5018957;28;20402;-69
2022/05/15 04:11:39;;;;;;;17.60;6.53;;;13.20;99.90;;;;;;5019784;28;20053;-68
2022/05/15 04:14:06;;;;;;;18.00;6.93;;;13.10;99.90;;;;;;5019264;28;20045;-68
2022/05/15 04:16:32;;;;;;;16.48;7.25;;;13.20;99.90;;;;;;5019391;28;20034;-69
2022/05/15 04:18:58;;;;;;;21.70;7.70;;;13.20;99.90;;;;;;5019295;28;20302;-68
2022/05/15 04:21:25;;;;;;;17.75;7.45;;;13.10;99.90;;;;;;5018396;28;20034;-68
2022/05/15 04:23:51;;;;;;;22.42;7.65;;;13.10;99.90;;;;;;5018491;28;20033;-68
2022/05/15 04:26:17;;;;;;;18.67;7.28;;;13.10;99.90;;;;;;5018324;28;20276;-68
2022/05/15 04:28:43;;;;;;;18.95;7.53;;;13.10;99.90;;;;;;5019585;28;20092;-68
2022/05/15 04:31:09;;;;;;;20.23;7.43;;;13.20;99.90;;;;;;5018298;28;20044;-68
2022/05/15 04:33:35;;;;;;;22.50;7.85;;;13.10;99.90;;;;;;5018306;28;20057;-68
2022/05/15 04:36:01;;;;;;;19.23;7.85;;;13.10;99.90;;;;;;5018261;28;20125;-68
2022/05/15 04:38:27;;;;;;;19.55;6.82;;;13.10;99.90;;;;;;5019583;28;20034;-68
2022/05/15 04:40:53;;;;;;;18.92;7.75;;;13.10;99.90;;;;;;5018882;28;20061;-68
2022/05/15 04:43:20;;;;;;;26.95;8.70;;;13.10;99.90;;;;;;5019175;28;20062;-68
2022/05/15 04:45:46;;;;;;;22.92;7.72;;;13.30;99.90;;;;;;5018786;28;20033;-69
2022/05/15 04:48:12;;;;;;;19.60;7.65;;;13.30;99.90;;;;;;5018866;28;20329;-68
2022/05/15 04:50:38;;;;;;;20.85;7.60;;;13.50;99.90;;;;;;5018148;28;20029;-69
2022/05/15 04:53:05;;;;;;;18.50;7.72;;;13.60;99.90;;;;;;5018632;28;20168;-68
2022/05/15 04:55:31;;;;;;;18.83;7.93;;;13.60;99.90;;;;;;5018684;28;20033;-68
2022/05/15 04:57:57;;;;;;;21.63;7.72;;;13.70;99.90;;;;;;5018531;28;20034;-68
2022/05/15 05:00:23;;;;;;;20.23;7.90;;;13.80;99.90;;;;;;5018979;28;20030;-68
2022/05/15 05:02:49;;;;;;;22.10;8.05;;;13.80;99.90;;;;;;5018515;28;20077;-68
2022/05/15 05:05:15;;;;;;;21.38;7.65;;;13.80;99.90;;;;;;5018480;28;20037;-68
2022/05/15 05:07:41;;;;;;;20.85;7.90;;;13.80;99.90;;;;;;5018386;28;20038;-68
2022/05/15 05:10:09;;;;;;;22.80;7.85;;;13.80;99.90;;;;;;5018355;28;20040;-69
2022/05/15 05:12:36;;;;;;;17.58;7.57;;;13.90;99.90;;;;;;5018289;28;20433;-69
2022/05/15 05:15:06;;;;;;;20.13;7.72;;;14.00;99.90;;;;;;5018378;28;20041;-69
2022/05/15 05:17:32;;;;;;;24.73;8.00;;;14.00;99.90;;;;;;5018365;28;20041;-69
2022/05/15 05:19:58;;;;;;;21.30;7.55;;;14.10;99.90;;;;;;5017392;28;20030;-70
2022/05/15 05:22:24;;;;;;;19.63;7.97;;;14.20;99.90;;;;;;5018070;28;20034;-69
2022/05/15 05:24:50;;;;;;;17.40;7.82;;;14.30;99.90;;;;;;5018112;28;20053;-69
2022/05/15 05:27:15;;;;;;;17.13;7.68;;;14.40;99.90;;;;;;5018274;28;20424;-69
2022/05/15 05:29:42;;;;;;;17.92;8.48;;;14.50;99.90;;;;;;5018001;28;20034;-70
2022/05/15 05:32:08;;;;;;;17.42;8.40;;;14.60;99.90;;;;;;5017881;28;20397;-70
2022/05/15 05:34:35;;;;;;;18.20;7.80;;;14.70;99.90;;;;;;5017828;28;20037;-70
2022/05/15 05:37:00;;;;;;;17.38;8.85;;;14.70;99.90;;;;;;5017571;28;20053;-70
2022/05/15 05:39:29;;;;;;;20.38;8.60;;;14.70;99.90;;;;;;5017824;28;20060;-69
2022/05/15 05:41:56;;;;;;;20.15;8.48;;;14.90;99.90;;;;;;5017971;28;20048;-67
2022/05/15 05:44:23;;;;;;;23.25;9.00;;;14.90;99.90;;;;;;5017700;28;20137;-69
2022/05/15 05:46:49;;;;;;;20.10;8.32;;;15.00;99.90;;;;;;5017645;28;20128;-68
2022/05/15 05:49:14;;;;;;;21.85;9.20;;;15.00;99.90;;;;;;5017500;28;20057;-68
2022/05/15 05:51:40;;;;;;;19.52;8.30;;;15.00;99.90;;;;;;5017612;28;20417;-68
2022/05/15 05:54:06;;;;;;;14.80;7.97;;;15.10;99.90;;;;;;5017507;28;20416;-68
2022/05/15 05:56:31;;;;;;;16.50;8.18;;;15.30;99.90;;;;;;5017580;28;20022;-69
2022/05/15 05:58:57;;;;;;;21.00;8.88;;;15.30;99.90;;;;;;5018117;28;20033;-68
2022/05/15 06:01:23;;;;;;;18.63;8.82;;;15.30;99.90;;;;;;5017494;28;20349;-69
2022/05/15 06:06:33;;;;;;;19.92;8.82;;;15.40;99.90;;;;;;5017673;28;20046;-68
2022/05/15 06:08:59;;;;;;;15.57;8.57;;;15.50;99.90;;;;;;5017650;28;20405;-68
2022/05/15 06:11:24;;;;;;;20.33;8.98;;;15.50;99.90;;;;;;5017051;28;20033;-68
2022/05/15 06:13:50;;;;;;;20.10;8.75;;;15.70;99.90;;;;;;5016501;28;20033;-68
2022/05/15 06:16:16;;;;;;;24.42;9.48;;;15.70;99.90;;;;;;5017198;28;20030;-69
2022/05/15 06:18:42;;;;;;;17.52;8.40;;;15.80;99.90;;;;;;5000641;28;20389;-69
2022/05/15 06:21:08;;;;;;;20.73;9.43;;;15.90;99.90;;;;;;5016862;28;20037;-68
2022/05/15 06:23:33;;;;;;;18.85;9.45;;;15.90;99.90;;;;;;5017727;28;20045;-68
2022/05/15 06:25:59;;;;;;;25.27;9.90;;;16.00;99.90;;;;;;5017533;28;20088;-69
2022/05/15 06:28:25;;;;;;;19.52;9.18;;;16.10;99.90;;;;;;5017415;28;20040;-69
2022/05/15 06:30:50;;;;;;;20.52;9.00;;;16.20;99.90;;;;;;5018051;28;20121;-68
2022/05/15 06:33:17;;;;;;;24.08;9.98;;;16.40;99.90;;;;;;5016867;28;20041;-68
2022/05/15 06:35:44;;;;;;;19.90;9.25;;;16.50;99.90;;;;;;5017098;28;20326;-69
2022/05/15 06:38:09;;;;;;;16.63;8.93;;;16.60;99.90;;;;;;5017574;28;20337;-69
2022/05/15 06:40:37;;;;;;;18.58;8.80;;;16.60;99.90;;;;;;5016568;28;20125;-69
2022/05/15 06:43:03;;;;;;;16.27;9.15;;;16.70;99.90;;;;;;5001021;28;20123;-67
2022/05/15 06:45:29;;;;;;;15.23;8.65;;;16.80;99.90;;;;;;5016645;28;20026;-69
2022/05/15 06:47:55;;;;;;;22.70;9.20;;;16.80;99.90;;;;;;5016586;28;20457;-70
2022/05/15 06:50:21;;;;;;;18.45;8.90;;;16.80;99.90;;;;;;5020392;28;20022;-67
2022/05/15 06:52:47;;;;;;;18.15;9.23;;;16.90;99.90;;;;;;5004362;28;20041;-68
2022/05/15 06:55:16;;;;;;;14.40;8.93;;;17.00;99.90;;;;;;5021013;28;20041;-70
2022/05/15 06:57:43;;;;;;;24.45;8.98;;;17.20;99.90;;;;;;5019851;28;20036;-67
2022/05/15 07:00:11;;;;;;;16.88;8.50;;;17.30;99.90;;;;;;5020331;28;20018;-68
2022/05/15 07:02:37;;;;;;;18.88;9.00;;;17.40;99.90;;;;;;5020738;28;20040;-70
2022/05/15 07:05:04;;;;;;;17.00;8.63;;;17.50;99.90;;;;;;5020845;28;20357;-69
2022/05/15 07:07:30;;;;;;;16.40;8.88;;;17.60;99.90;;;;;;5020613;28;20041;-69
2022/05/15 07:09:56;;;;;;;18.38;8.82;;;17.60;99.90;;;;;;5021023;28;20115;-69
2022/05/15 07:12:24;;;;;;;16.80;8.48;;;17.70;99.90;;;;;;5020612;28;20069;-69
2022/05/15 07:14:50;;;;;;;17.10;8.43;;;17.80;99.90;;;;;;5021039;28;20061;-69
2022/05/15 07:17:16;;;;;;;14.85;8.88;;;18.00;99.90;;;;;;5020460;28;20072;-70
2022/05/15 07:19:42;;;;;;;16.23;8.90;;;18.10;99.90;;;;;;5020859;28;20420;-69
2022/05/15 07:22:09;;;;;;;15.85;7.88;;;18.10;99.90;;;;;;5020473;28;20345;-69
2022/05/15 07:24:38;;;;;;;16.50;8.45;;;18.20;99.90;;;;;;5020412;28;20042;-69
2022/05/15 07:27:05;;;;;;;14.23;7.57;;;18.30;99.90;;;;;;5020157;28;20121;-69
2022/05/15 07:29:33;;;;;;;15.32;6.75;;;18.40;99.90;;;;;;5019739;28;20062;-69
2022/05/15 07:31:59;;;;;;;18.95;8.18;;;18.60;99.90;;;;;;5019473;28;20061;-69
2022/05/15 07:34:25;;;;;;;16.30;8.13;;;18.70;99.90;;;;;;5020111;28;20440;-68
2022/05/15 07:36:52;;;;;;;15.45;7.57;;;18.90;99.90;;;;;;5020385;28;20034;-69
2022/05/15 07:39:20;;;;;;;15.88;7.97;;;19.00;99.90;;;;;;5020175;28;20033;-70
2022/05/15 07:41:46;;;;;;;15.13;7.32;;;19.00;99.90;;;;;;5020067;28;20036;-69
2022/05/15 07:44:12;;;;;;;16.05;8.07;;;19.20;99.90;;;;;;5019991;28;20057;-69
2022/05/15 07:46:38;;;;;;;16.70;8.60;;;19.20;99.90;;;;;;5019663;28;20042;-70
2022/05/15 07:49:03;;;;;;;15.68;7.95;;;19.30;99.90;;;;;;5020236;28;20061;-69
2022/05/15 07:51:31;;;;;;;12.57;7.25;;;19.50;99.90;;;;;;5019201;28;20071;-69
2022/05/15 07:53:57;;;;;;;14.02;7.35;;;19.50;99.90;;;;;;5019107;28;20045;-67
2022/05/15 07:56:23;;;;;;;17.40;7.18;;;19.60;99.90;;;;;;5019608;28;20168;-68
2022/05/15 07:58:49;;;;;;;12.65;6.75;;;19.60;99.90;;;;;;5019719;28;20109;-69
2022/05/15 08:01:15;;;;;;;17.83;7.75;;;19.70;99.90;;;;;;5019204;28;20172;-69
2022/05/15 08:03:43;;;;;;;13.70;7.50;;;19.80;99.90;;;;;;5019748;28;20105;-67
2022/05/15 08:08:56;;;;;;;17.83;7.63;;;20.00;99.90;;;;;;5019710;28;20038;-69
2022/05/15 08:11:26;;;;;;;15.68;7.68;;;20.20;99.90;;;;;;5019387;28;20397;-66
2022/05/15 08:13:53;;;;;;;14.63;7.03;;;20.40;99.90;;;;;;5019325;28;20449;-66
2022/05/15 08:16:18;;;;;;;16.83;6.97;;;20.40;99.90;;;;;;5019453;28;20026;-67
2022/05/15 08:24:14;;;;;;;16.27;8.15;;;20.70;99.90;;;;;;5019936;28;20402;-66
2022/05/15 08:26:41;;;;;;;14.57;7.13;;;20.80;99.90;;;;;;5019266;28;20046;-66
2022/05/15 08:29:07;;;;;;;18.00;7.05;;;20.90;99.90;;;;;;5019503;28;20077;-67
2022/05/15 08:31:33;;;;;;;16.40;6.80;;;21.00;99.90;;;;;;5018484;28;20034;-65
2022/05/15 08:33:59;;;;;;;17.67;6.55;;;21.10;99.90;;;;;;5019049;28;20062;-67
2022/05/15 08:36:25;;;;;;;14.60;6.07;;;21.10;99.90;;;;;;5019032;28;20045;-69
2022/05/15 08:38:50;;;;;;;18.52;6.30;;;21.30;99.90;;;;;;5019098;28;20026;-66
2022/05/15 08:41:47;;;;;;;12.90;6.10;;;21.40;99.90;;;;;;5019018;28;20169;-66
2022/05/15 08:44:29;;;;;;;11.10;5.20;;;21.40;99.90;;;;;;5018835;28;20053;-66
2022/05/15 08:47:16;;;;;;;11.05;5.40;;;21.60;99.90;;;;;;5018934;28;20048;-66
2022/05/15 08:49:54;;;;;;;11.48;5.10;;;21.70;99.90;;;;;;5018878;28;20025;-66
2022/05/15 08:52:25;;;;;;;13.52;5.30;;;21.70;99.90;;;;;;5018037;28;20121;-66
2022/05/15 08:55:14;;;;;;;12.27;5.32;;;21.80;99.90;;;;;;5018779;28;20034;-65
2022/05/15 08:58:05;;;;;;;10.90;4.65;;;21.90;99.90;;;;;;5018207;28;20034;-67
2022/05/15 09:00:42;;;;;;;10.57;4.32;;;22.00;99.90;;;;;;5019272;28;20040;-66
2022/05/15 09:03:18;;;;;;;16.20;4.32;;;22.00;99.90;;;;;;5018553;28;20274;-67
2022/05/15 09:06:09;;;;;;;8.65;3.78;;;22.10;99.90;;;;;;5019435;28;20362;-67
2022/05/15 09:08:52;;;;;;;8.65;3.67;;;22.10;99.90;;;;;;5017823;28;20030;-67
2022/05/15 09:11:35;;;;;;;8.80;3.30;;;22.30;99.90;;;;;;5018318;28;20030;-66
2022/05/15 09:14:09;;;;;;;11.18;3.75;;;22.50;99.90;;;;;;5018720;28;20053;-68
2022/05/15 09:16:39;;;;;;;10.77;3.00;;;22.70;99.90;;;;;;5018337;28;20033;-67
2022/05/15 09:19:06;;;;;;;7.53;3.47;;;22.80;99.90;;;;;;5018293;28;20026;-67
2022/05/15 09:21:33;;;;;;;7.32;3.17;;;22.90;99.90;;;;;;5018183;28;20290;-68
2022/05/15 09:24:06;;;;;;;8.27;3.20;;;22.90;99.90;;;;;;5017492;28;20053;-67
2022/05/15 09:26:47;;;;;;;6.63;3.20;;;23.00;99.90;;;;;;5018619;28;20034;-67
2022/05/15 09:29:22;;;;;;;8.18;3.40;;;22.80;99.90;;;;;;5018192;28;20123;-67
2022/05/15 09:31:49;;;;;;;7.55;3.17;;;22.90;99.90;;;;;;5018023;28;20095;-67
2022/05/15 09:34:24;;;;;;;7.57;3.50;;;22.90;99.90;;;;;;5000961;28;20393;-67
2022/05/15 09:38:27;;;;;;;6.97;2.95;;;23.10;99.90;;;;;;5017224;28;20044;-67
2022/05/15 09:39:50;;;;;;;10.68;3.67;;;23.20;99.90;;;;;;5018534;28;20168;-67
2022/05/15 09:45:20;;;;;;;11.10;3.10;;;23.30;99.90;;;;;;5018526;28;20037;-67
2022/05/15 09:48:01;;;;;;;8.05;2.85;;;23.40;99.90;;;;;;5017722;28;20033;-67
2022/05/15 09:50:52;;;;;;;7.40;2.65;;;23.60;99.90;;;;;;5017836;28;20042;-67
2022/05/15 09:53:27;;;;;;;10.40;3.40;;;23.50;99.90;;;;;;5016916;28;20088;-66
2022/05/15 09:56:02;;;;;;;9.60;3.25;;;23.60;99.90;;;;;;5017629;28;20030;-66
2022/05/15 09:58:43;;;;;;;7.35;2.95;;;23.70;99.90;;;;;;5016931;28;20318;-67
2022/05/15 10:01:39;;;;;;;10.02;2.80;;;23.80;99.90;;;;;;5017569;28;20022;-65
2022/05/15 10:04:26;;;;;;;7.15;2.65;;;23.70;99.90;;;;;;5017842;28;20408;-66
2022/05/15 10:07:05;;;;;;;8.02;2.50;;;23.90;99.90;;;;;;5017475;28;20042;-66
2022/05/15 10:09:40;;;;;;;5.13;2.42;;;24.10;99.90;;;;;;5017463;28;20112;-67
2022/05/15 10:12:30;;;;;;;9.73;2.65;;;24.20;99.90;;;;;;5016946;28;20044;-66
2022/05/15 10:15:05;;;;;;;5.28;2.40;;;24.10;99.90;;;;;;5017280;28;20363;-65
2022/05/15 10:17:32;;;;;;;7.43;2.00;;;24.30;99.90;;;;;;5016528;28;20044;-65
2022/05/15 10:20:00;;;;;;;7.10;2.25;;;24.40;99.90;;;;;;5017285;28;20339;-66
2022/05/15 10:22:36;;;;;;;8.73;2.10;;;24.40;99.60;;;;;;5016420;28;20153;-65
2022/05/15 10:25:34;;;;;;;7.82;2.50;;;24.70;99.90;;;;;;5016376;28;20445;-65
2022/05/15 10:28:06;;;;;;;7.30;2.40;;;25.00;99.90;;;;;;5014310;28;20111;-65
2022/05/15 10:30:39;;;;;;;6.50;1.60;;;25.20;99.90;;;;;;5017165;28;20033;-66
2022/05/15 10:33:14;;;;;;;6.90;1.85;;;25.20;97.90;;;;;;5016255;28;20038;-65
2022/05/15 10:35:47;;;;;;;4.15;1.70;;;25.10;97.20;;;;;;5017500;28;20076;-66
2022/05/15 10:38:38;;;;;;;4.15;1.55;;;24.90;96.20;;;;;;5017242;28;20033;-65
2022/05/15 10:41:23;;;;;;;6.60;1.70;;;25.10;96.90;;;;;;4999133;28;20054;-65
2022/05/15 10:44:13;;;;;;;4.07;1.90;;;25.50;96.10;;;;;;5016063;28;20108;-65
2022/05/15 10:46:50;;;;;;;6.93;2.13;;;25.80;95.10;;;;;;5016896;28;20404;-64
2022/05/15 10:49:35;;;;;;;9.10;2.08;;;25.80;95.20;;;;;;5016996;28;20279;-64
2022/05/15 10:52:23;;;;;;;7.28;1.88;;;25.80;94.00;;;;;;5017015;28;20041;-65
2022/05/15 10:57:58;;;;;;;4.78;1.83;;;26.40;94.50;;;;;;5016962;28;20091;-67
2022/05/15 11:01:07;;;;;;;5.68;2.65;;;27.70;92.60;;;;;;5016834;28;20053;-67
2022/05/15 11:03:41;;;;;;;7.40;2.20;;;27.80;91.50;;;;;;5016458;28;20049;-64
2022/05/15 11:06:26;;;;;;;7.25;2.17;;;28.50;90.30;;;;;;5017431;28;20157;-66
2022/05/15 11:09:19;;;;;;;6.40;1.65;;;29.30;88.60;;;;;;5017444;28;20034;-66
2022/05/15 11:12:04;;;;;;;4.93;1.90;;;30.70;84.60;;;;;;5016678;28;20323;-66
2022/05/15 11:14:48;;;;;;;8.20;2.10;;;30.90;78.70;;;;;;5016704;28;20038;-66
2022/05/15 11:17:36;;;;;;;4.32;1.45;;;30.80;76.90;;;;;;5016793;28;20037;-65
2022/05/15 11:20:17;;;;;;;6.07;1.90;;;31.40;73.90;;;;;;5017309;28;20033;-66
2022/05/15 11:22:49;;;;;;;6.97;1.92;;;32.40;72.40;;;;;;5016647;28;20034;-66
2022/05/15 11:25:21;;;;;;;6.65;1.85;;;33.00;69.80;;;;;;5016927;28;20402;-66
2022/05/15 11:27:54;;;;;;;14.98;8.45;;;33.20;67.00;;;;;;5015719;28;20053;-66
2022/05/15 11:30:31;;;;;;;8.93;2.00;;;32.60;66.10;;;;;;5016459;28;20041;-66
2022/05/15 11:33:03;;;;;;;6.40;1.75;;;33.60;64.20;;;;;;5016533;28;20042;-65
2022/05/15 11:35:31;;;;;;;;;;;33.70;62.20;;;;;;5017323;28;20068;-65
2022/05/15 11:37:56;;;;;;;3.75;1.50;;;33.00;62.10;;;;;;5019977;28;19909;-65
2022/05/15 11:40:43;;;;;;;7.75;1.58;;;32.20;62.90;;;;;;5019291;28;20040;-67
2022/05/15 11:43:27;;;;;;;3.90;1.40;;;32.50;60.90;;;;;;5019650;28;20196;-67
2022/05/15 11:46:01;;;;;;;3.88;1.65;;;33.80;60.20;;;;;;5020338;28;20041;-65
2022/05/15 11:48:51;;;;;;;7.13;1.80;;;34.10;57.60;;;;;;5019770;28;20384;-64
2022/05/15 11:51:17;;;;;;;6.57;1.92;;;34.60;55.90;;;;;;5019769;28;20034;-66
2022/05/15 11:53:59;;;;;;;7.00;1.80;;;33.80;58.30;;;;;;5019819;28;20034;-67
2022/05/15 11:56:51;;;;;;;3.55;1.48;;;33.10;56.70;;;;;;5020066;28;20119;-67
2022/05/15 11:59:25;;;;;;;5.78;1.80;;;31.70;59.40;;;;;;5015150;28;20140;-66
2022/05/15 12:01:58;;;;;;;4.68;1.40;;;32.90;58.40;;;;;;5019690;28;20034;-66
2022/05/15 12:04:36;;;;;;;6.57;1.60;;;32.80;57.70;;;;;;5019656;28;20323;-66
2022/05/15 12:07:02;;;;;;;4.40;1.63;;;32.10;57.70;;;;;;5018843;28;20436;-65
2022/05/15 12:09:36;;;;;;;5.38;1.88;;;32.30;58.30;;;;;;5019640;28;20038;-69
2022/05/15 12:12:23;;;;;;;4.60;1.70;;;31.70;58.50;;;;;;5002382;28;20041;-67
2022/05/15 12:15:05;;;;;;;7.65;2.13;;;30.90;59.30;;;;;;5019474;28;20353;-67
2022/05/15 12:17:37;;;;;;;4.33;1.60;;;31.70;58.70;;;;;;5019434;28;20030;-66
2022/05/15 12:20:37;;;;;;;4.07;1.67;;;31.90;57.80;;;;;;5019453;28;20041;-65
2022/05/15 12:23:13;;;;;;;6.82;1.52;;;32.10;57.30;;;;;;5019526;28;20448;-67
2022/05/15 12:26:15;;;;;;;3.92;1.40;;;32.00;56.80;;;;;;5019800;28;20036;-65
2022/05/15 12:29:22;;;;;;;6.65;1.95;;;32.40;56.50;;;;;;5019417;28;20034;-65
2022/05/15 12:31:49;;;;;;;6.50;1.70;;;33.10;56.80;;;;;;5019554;28;20030;-67
2022/05/15 12:34:30;;;;;;;5.22;1.52;;;32.40;57.50;;;;;;5018264;28;20337;-66
2022/05/15 12:37:03;;;;;;;5.50;1.73;;;32.50;57.90;;;;;;5019112;28;20294;-65
2022/05/15 12:39:35;;;;;;;4.45;1.73;;;32.30;57.00;;;;;;5018311;28;20018;-67
2022/05/15 12:42:07;;;;;;;5.55;1.45;;;32.60;55.60;;;;;;5018994;28;20348;-66
2022/05/15 12:44:38;;;;;;;3.00;1.45;;;34.10;53.30;;;;;;5018879;28;20050;-66
2022/05/15 12:47:09;;;;;;;3.97;1.38;;;34.80;53.00;;;;;;5017290;28;20069;-65
2022/05/15 12:49:43;;;;;;;5.45;1.33;;;34.10;53.70;;;;;;5018914;28;20061;-65
2022/05/15 12:52:15;;;;;;;5.47;1.70;;;34.80;52.80;;;;;;5018843;28;20176;-65
2022/05/15 12:54:42;;;;;;;;;;;35.20;51.80;;;;;;5019031;28;20041;-65
2022/05/15 12:57:12;;;;;;;6.72;1.98;;;35.20;51.80;;;;;;5018919;28;19905;-66
2022/05/15 12:59:41;;;;;;;7.38;1.80;;;35.30;51.00;;;;;;5018636;28;20115;-67
2022/05/15 13:02:22;;;;;;;3.53;1.95;;;35.20;51.10;;;;;;5018467;28;20034;-65
2022/05/15 13:04:52;;;;;;;3.60;1.52;;;36.70;50.10;;;;;;5019083;28;20037;-65
2022/05/15 13:07:24;;;;;;;6.25;1.70;;;36.80;47.90;;;;;;5018549;28;20034;-67
2022/05/15 13:10:16;;;;;;;;;;;36.90;48.40;;;;;;5018887;28;20041;-64
2022/05/15 13:13:12;;;;;;;5.28;1.58;;;36.30;47.10;;;;;;5016656;28;19909;-67
2022/05/15 13:15:44;;;;;;;5.18;1.70;;;37.70;46.90;;;;;;5018398;28;20033;-64
2022/05/15 13:18:11;;;;;;;4.03;1.30;;;38.60;45.40;;;;;;5018230;28;20040;-66
2022/05/15 13:20:39;;;;;;;4.32;1.60;;;38.90;43.40;;;;;;5018209;28;20034;-67